Time;durP1;ratioP1;P1;durP2;ratioP2;P2;SDS_P1;SDS_P2;PMS_P1;PMS_P2;Temp;Humidity;BMP_temperature;BMP_pressure;BME280_temperature;BME280_humidity;BME280_pressure;Samples;Min_cycle;Max_cycle;Signal;HPM_P1;HPM_P2
2022/05/26 00:02:11;;;;;;;2.77;1.50;;;17.80;78.10;18.20;96871.00;;;;5055712;28;20231;-87
2022/05/26 00:04:39;;;;;;;1.83;1.43;;;17.80;78.20;18.10;96864.00;;;;5062718;28;20193;-87
2022/05/26 00:07:07;;;;;;;1.50;1.40;;;17.80;78.20;18.10;96869.00;;;;5055472;28;20201;-87
2022/05/26 00:09:34;;;;;;;1.40;1.30;;;17.70;78.10;18.00;96866.00;;;;5054709;28;20194;-87
2022/05/26 00:12:02;;;;;;;1.10;1.10;;;17.70;78.10;18.00;96871.00;;;;5063804;28;20216;-87
2022/05/26 00:14:32;;;;;;;1.63;1.10;;;17.60;78.00;18.00;96874.00;;;;5055306;28;20208;-88
2022/05/26 00:16:59;;;;;;;1.40;1.30;;;17.60;78.00;17.90;96868.00;;;;5055974;28;20181;-87
2022/05/26 00:19:26;;;;;;;1.33;1.23;;;17.50;78.10;17.90;96870.00;;;;5055677;28;20271;-87
2022/05/26 00:21:54;;;;;;;1.30;1.20;;;17.50;78.20;17.90;96878.00;;;;5038975;28;20237;-88
2022/05/26 00:24:22;;;;;;;1.40;1.27;;;17.50;78.40;17.80;96872.00;;;;5038312;28;20199;-87
2022/05/26 00:26:49;;;;;;;2.73;1.37;;;17.30;78.50;17.80;96873.00;;;;5058660;28;20565;-88
2022/05/26 00:29:16;;;;;;;1.30;1.20;;;17.40;78.70;17.80;96877.00;;;;5056600;28;20197;-87
2022/05/26 00:31:44;;;;;;;1.40;1.30;;;17.40;78.80;17.70;96877.00;;;;5055410;28;20578;-87
2022/05/26 00:34:11;;;;;;;1.30;1.20;;;17.30;78.60;17.70;96876.00;;;;5035376;28;20193;-87
2022/05/26 00:36:38;;;;;;;1.17;1.10;;;17.30;78.60;17.70;96881.00;;;;5054677;28;20196;-87
2022/05/26 00:39:11;;;;;;;1.30;1.20;;;17.30;78.60;17.60;96868.00;;;;5060537;28;20663;-87
2022/05/26 00:41:45;;;;;;;1.40;1.30;;;17.30;78.60;17.60;96863.00;;;;5066794;28;20230;-87
2022/05/26 00:44:13;;;;;;;2.03;1.00;;;17.20;78.50;17.60;96870.00;;;;5075342;28;20196;-88
2022/05/26 00:46:50;;;;;;;1.00;1.00;;;17.20;78.60;17.50;96876.00;;;;5058038;28;20189;-88
2022/05/26 00:49:26;;;;;;;0.90;0.90;;;17.20;78.50;17.50;96871.00;;;;5055268;28;20200;-87
2022/05/26 00:51:54;;;;;;;1.30;1.20;;;17.10;78.40;17.50;96871.00;;;;5055167;28;20220;-87
2022/05/26 00:54:26;;;;;;;1.10;1.10;;;17.10;78.40;17.40;96865.00;;;;5054867;28;20203;-87
2022/05/26 00:57:00;;;;;;;1.10;1.10;;;17.10;78.30;17.40;96858.00;;;;5054948;28;20645;-87
2022/05/26 00:59:40;;;;;;;0.80;0.80;;;17.00;78.40;17.30;96862.00;;;;5054592;28;20181;-87
2022/05/26 01:02:08;;;;;;;0.90;0.90;;;17.00;78.50;17.30;96865.00;;;;5054196;28;20216;-87
2022/05/26 01:04:44;;;;;;;1.50;0.93;;;16.90;78.50;17.30;96865.00;;;;5054751;28;20661;-88
2022/05/26 01:07:16;;;;;;;1.40;1.03;;;16.90;78.50;17.20;96855.00;;;;5054254;28;20192;-88
2022/05/26 01:09:45;;;;;;;1.57;0.90;;;17.00;78.60;17.20;96853.00;;;;5054156;28;20205;-88
2022/05/26 01:12:13;;;;;;;1.00;1.00;;;16.80;78.50;17.10;96857.00;;;;5064166;28;20269;-89
2022/05/26 01:14:46;;;;;;;0.90;0.90;;;16.80;78.60;17.10;96856.00;;;;5056418;28;20201;-88
2022/05/26 01:17:30;;;;;;;1.00;0.90;;;16.80;78.70;17.10;96862.00;;;;5054624;28;20200;-87
2022/05/26 01:20:25;;;;;;;0.90;0.90;;;16.70;78.50;17.00;96871.00;;;;5065570;28;20636;-87
2022/05/26 01:23:41;;;;;;;1.47;1.00;;;16.70;79.10;17.00;96876.00;;;;5054064;28;20216;-87
2022/05/26 01:26:39;;;;;;;1.07;1.07;;;16.70;78.50;16.90;96877.00;;;;5049426;28;20727;-87
2022/05/26 01:29:58;;;;;;;1.17;0.90;;;16.60;78.70;16.90;96876.00;;;;5048725;28;20211;-87
2022/05/26 01:32:40;;;;;;;0.97;0.97;;;16.60;79.00;16.90;96880.00;;;;5050933;28;20255;-87
2022/05/26 01:35:16;;;;;;;0.83;0.83;;;16.60;79.30;16.80;96871.00;;;;5054146;28;20196;-87
2022/05/26 01:38:01;;;;;;;0.73;0.67;;;16.50;79.30;16.80;96869.00;;;;5053860;28;20560;-88
2022/05/26 01:40:37;;;;;;;1.20;1.07;;;16.50;79.40;16.80;96870.00;;;;5064017;28;20188;-87
2022/05/26 01:43:16;;;;;;;1.00;1.00;;;16.50;79.50;16.80;96874.00;;;;5074209;28;20223;-87
2022/05/26 01:45:54;;;;;;;1.77;1.00;;;16.50;79.60;16.80;96871.00;;;;5056851;28;20552;-88
2022/05/26 01:48:30;;;;;;;0.87;0.87;;;16.40;79.60;16.70;96875.00;;;;5054363;28;20296;-88
2022/05/26 01:51:03;;;;;;;0.93;0.93;;;16.40;79.70;16.70;96887.00;;;;5054349;28;20196;-88
2022/05/26 01:53:45;;;;;;;1.30;1.20;;;16.40;79.80;16.70;96872.00;;;;5053595;28;20207;-87
2022/05/26 01:56:27;;;;;;;1.13;1.03;;;16.40;79.60;16.70;96888.00;;;;5054082;28;20195;-88
2022/05/26 01:59:03;;;;;;;1.00;0.97;;;16.40;79.50;16.70;96879.00;;;;5034050;28;20197;-88
2022/05/26 02:01:38;;;;;;;1.10;0.93;;;16.30;79.50;16.60;96881.00;;;;5044417;28;20222;-88
2022/05/26 02:04:15;;;;;;;1.13;1.03;;;16.30;79.60;16.60;96876.00;;;;5048901;28;20196;-88
2022/05/26 02:06:50;;;;;;;0.93;0.93;;;16.30;79.70;16.60;96877.00;;;;5055387;28;20734;-88
2022/05/26 02:09:22;;;;;;;1.17;1.00;;;16.30;79.90;16.60;96868.00;;;;5073798;28;20286;-88
2022/05/26 02:11:57;;;;;;;1.03;0.87;;;16.30;80.00;16.50;96875.00;;;;5073521;28;20216;-87
2022/05/26 02:14:33;;;;;;;1.10;1.00;;;16.20;80.00;16.50;96869.00;;;;5059259;28;20662;-87
2022/05/26 02:17:11;;;;;;;1.47;1.00;;;16.20;79.90;16.50;96879.00;;;;5057985;28;20559;-87
2022/05/26 02:19:46;;;;;;;0.90;0.90;;;16.20;80.00;16.50;96883.00;;;;5053840;28;20223;-87
2022/05/26 02:22:21;;;;;;;1.73;1.20;;;16.20;80.00;16.50;96877.00;;;;5054359;28;20228;-87
2022/05/26 02:24:56;;;;;;;1.50;1.00;;;16.20;80.10;16.40;96880.00;;;;5053155;28;20200;-88
2022/05/26 02:27:26;;;;;;;1.27;1.17;;;16.20;80.10;16.40;96882.00;;;;5053191;28;20211;-88
2022/05/26 02:29:53;;;;;;;1.10;1.03;;;16.10;80.00;16.40;96881.00;;;;5053316;28;20284;-88
2022/05/26 02:32:27;;;;;;;1.43;1.10;;;16.10;79.90;16.40;96884.00;;;;5053792;28;20220;-87
2022/05/26 02:34:59;;;;;;;1.00;1.00;;;16.10;79.70;16.30;96885.00;;;;5052772;28;20204;-87
2022/05/26 02:37:30;;;;;;;1.37;1.20;;;16.10;79.80;16.30;96891.00;;;;5053233;28;20197;-88
2022/05/26 02:39:57;;;;;;;1.00;1.00;;;16.10;80.10;16.30;96885.00;;;;5065699;28;20192;-87
2022/05/26 02:42:25;;;;;;;1.47;1.00;;;16.00;80.10;16.30;96878.00;;;;5056500;28;20217;-87
2022/05/26 02:44:53;;;;;;;1.00;1.00;;;16.00;80.10;16.30;96871.00;;;;5053060;28;20196;-87
2022/05/26 02:47:47;;;;;;;1.40;1.30;;;16.00;80.20;16.30;96871.00;;;;5053007;28;20208;-87
2022/05/26 02:50:28;;;;;;;2.50;1.30;;;16.00;80.20;16.20;96869.00;;;;5033249;28;20181;-87
2022/05/26 02:53:08;;;;;;;1.43;1.30;;;16.00;80.50;16.20;96875.00;;;;5038525;28;20694;-87
2022/05/26 02:55:56;;;;;;;1.20;1.20;;;16.00;80.40;16.20;96884.00;;;;5052630;28;20788;-87
2022/05/26 02:58:40;;;;;;;1.70;1.40;;;15.90;80.30;16.20;96879.00;;;;5052742;28;20284;-87
2022/05/26 03:01:16;;;;;;;1.30;1.30;;;15.90;80.30;16.20;96874.00;;;;5052769;28;20196;-87
2022/05/26 03:03:49;;;;;;;1.33;1.17;;;15.90;80.50;16.20;96880.00;;;;5052668;28;20254;-87
2022/05/26 03:06:26;;;;;;;1.37;1.20;;;15.90;80.60;16.20;96881.00;;;;5052343;28;20193;-87
2022/05/26 03:08:56;;;;;;;2.00;1.17;;;15.90;80.50;16.20;96882.00;;;;5055527;28;20197;-87
2022/05/26 03:11:26;;;;;;;1.00;1.00;;;15.90;80.50;16.10;96880.00;;;;5061666;28;20289;-87
2022/05/26 03:13:54;;;;;;;1.30;1.20;;;15.90;80.50;16.20;96887.00;;;;5059522;28;20203;-87
2022/05/26 03:16:21;;;;;;;1.10;1.10;;;15.80;80.40;16.10;96880.00;;;;5051675;28;20199;-87
2022/05/26 03:18:48;;;;;;;1.33;1.23;;;15.80;80.30;16.10;96877.00;;;;5055304;28;20192;-87
2022/05/26 03:21:17;;;;;;;1.17;1.07;;;15.80;80.30;16.10;96874.00;;;;5055401;28;20680;-87
2022/05/26 03:23:44;;;;;;;1.50;1.40;;;15.90;80.30;16.10;96874.00;;;;5051491;28;20230;-87
2022/05/26 03:26:11;;;;;;;1.30;1.20;;;15.80;80.10;16.10;96873.00;;;;5055709;28;20198;-87
2022/05/26 03:28:38;;;;;;;1.27;1.27;;;15.80;80.00;16.00;96878.00;;;;5058449;28;20192;-87
2022/05/26 03:31:09;;;;;;;1.17;1.13;;;15.80;79.90;16.00;96884.00;;;;5065076;28;20200;-87
2022/05/26 03:41:48;;;;;;;1.07;1.07;;;15.70;80.00;15.90;96897.00;;;;5060774;28;20732;-87
2022/05/26 03:44:16;;;;;;;1.77;1.30;;;15.60;80.00;15.90;96910.00;;;;5058513;28;20689;-87
2022/05/26 03:46:43;;;;;;;1.07;1.07;;;15.60;80.20;15.90;96906.00;;;;5058865;28;20203;-87
2022/05/26 03:49:10;;;;;;;1.40;1.30;;;15.60;80.20;15.90;96918.00;;;;5060786;28;20657;-87
2022/05/26 03:51:38;;;;;;;3.50;1.63;;;15.60;80.40;15.80;96924.00;;;;5068028;28;20220;-87
2022/05/26 03:54:05;;;;;;;1.93;1.50;;;15.60;80.70;15.90;96927.00;;;;5054681;28;20669;-87
2022/05/26 03:56:32;;;;;;;1.70;1.57;;;15.50;80.80;15.80;96939.00;;;;5058732;28;20200;-88
2022/05/26 03:59:00;;;;;;;1.80;1.50;;;15.50;81.00;15.80;96944.00;;;;5060229;28;20201;-87
2022/05/26 04:01:29;;;;;;;2.00;1.57;;;15.50;81.20;15.80;96937.00;;;;5065376;28;20224;-87
2022/05/26 04:03:56;;;;;;;1.43;1.33;;;15.50;81.40;15.90;96948.00;;;;5065828;28;20689;-87
2022/05/26 04:06:23;;;;;;;1.50;1.23;;;15.50;81.40;15.90;96948.00;;;;5056363;28;20196;-87
2022/05/26 04:08:51;;;;;;;1.70;1.60;;;15.50;81.50;15.90;96948.00;;;;5062066;28;20188;-88
2022/05/26 04:11:19;;;;;;;1.53;1.40;;;15.50;81.60;15.90;96958.00;;;;5062393;28;20209;-88
2022/05/26 04:13:45;;;;;;;1.97;1.53;;;15.60;81.60;15.90;96960.00;;;;5054666;28;20201;-87
2022/05/26 04:16:12;;;;;;;1.50;1.40;;;15.60;81.70;16.00;96963.00;;;;5058455;28;20214;-87
2022/05/26 04:18:39;;;;;;;1.60;1.50;;;15.60;81.80;16.00;96959.00;;;;5070532;28;20204;-87
2022/05/26 04:21:10;;;;;;;1.70;1.60;;;15.60;81.80;16.00;96966.00;;;;5069766;28;20215;-88
2022/05/26 04:23:38;;;;;;;1.60;1.50;;;15.60;81.90;16.10;96965.00;;;;5078586;28;20587;-87
2022/05/26 04:26:08;;;;;;;1.60;1.50;;;15.70;82.10;16.10;96967.00;;;;5062561;28;20208;-88
2022/05/26 04:28:36;;;;;;;1.40;1.30;;;15.70;82.30;16.10;96964.00;;;;5059729;28;20196;-87
2022/05/26 04:31:04;;;;;;;2.70;1.80;;;15.70;82.40;16.20;96965.00;;;;5069921;28;20196;-87
2022/05/26 04:33:32;;;;;;;1.40;1.30;;;15.80;82.40;16.20;96954.00;;;;5064871;28;20201;-87
2022/05/26 04:35:59;;;;;;;1.50;1.40;;;15.80;82.40;16.30;96960.00;;;;5058111;28;20204;-87
2022/05/26 04:38:26;;;;;;;1.53;1.43;;;15.90;82.60;16.40;96964.00;;;;5054207;28;20209;-87
2022/05/26 04:40:58;;;;;;;1.53;1.43;;;15.90;82.60;16.40;96971.00;;;;5062586;28;20192;-86
2022/05/26 04:43:26;;;;;;;3.23;1.50;;;16.00;82.70;16.50;96972.00;;;;5068098;28;20216;-87
2022/05/26 04:45:53;;;;;;;1.67;1.57;;;16.10;82.80;16.60;96974.00;;;;5066446;28;20203;-87
2022/05/26 04:48:21;;;;;;;1.40;1.30;;;16.10;82.90;16.60;96981.00;;;;5063118;28;20576;-87
2022/05/26 04:50:50;;;;;;;1.60;1.50;;;16.10;82.90;16.70;96977.00;;;;5058105;28;20245;-88
2022/05/26 04:53:17;;;;;;;1.63;1.50;;;16.20;82.90;16.80;96978.00;;;;5060078;28;20225;-87
2022/05/26 04:55:44;;;;;;;1.40;1.30;;;16.30;82.90;16.80;96985.00;;;;5047513;28;20199;-87
2022/05/26 04:58:11;;;;;;;2.50;1.70;;;16.30;82.90;16.90;96985.00;;;;5054737;28;20203;-87
2022/05/26 05:00:40;;;;;;;2.83;1.57;;;16.40;83.00;17.00;96990.00;;;;5056732;28;20204;-88
2022/05/26 05:03:07;;;;;;;1.27;1.23;;;16.50;82.90;17.10;96991.00;;;;5066392;28;20232;-85
2022/05/26 05:05:34;;;;;;;1.60;1.50;;;16.60;83.00;17.20;97006.00;;;;5064950;28;20208;-87
2022/05/26 05:08:01;;;;;;;1.60;1.50;;;16.60;82.80;17.30;97013.00;;;;5050510;28;20622;-87
2022/05/26 05:10:29;;;;;;;1.20;1.10;;;16.70;82.80;17.30;97008.00;;;;5054780;28;20679;-87
2022/05/26 05:12:58;;;;;;;1.30;1.30;;;16.60;82.50;17.40;97021.00;;;;5053676;28;20217;-87
2022/05/26 05:15:34;;;;;;;1.50;1.40;;;16.80;82.40;17.50;97019.00;;;;5049331;28;20197;-87
2022/05/26 05:18:02;;;;;;;1.50;1.40;;;16.90;82.30;17.60;97011.00;;;;5054371;28;20650;-87
2022/05/26 05:20:30;;;;;;;1.37;1.33;;;17.00;82.10;17.70;97008.00;;;;5054874;28;20243;-87
2022/05/26 05:23:05;;;;;;;1.57;1.47;;;17.10;82.00;17.70;97024.00;;;;5065776;28;20677;-87
2022/05/26 05:25:39;;;;;;;1.50;1.40;;;17.10;81.70;17.80;97030.00;;;;5055893;28;20681;-86
2022/05/26 05:28:11;;;;;;;1.40;1.30;;;17.20;81.80;17.90;97020.00;;;;5052886;28;20283;-87
2022/05/26 05:30:44;;;;;;;1.33;1.27;;;17.30;81.40;17.90;97026.00;;;;5056808;28;20193;-87
2022/05/26 05:33:18;;;;;;;1.30;1.30;;;17.30;81.20;18.00;97023.00;;;;5059627;28;20720;-87
2022/05/26 05:35:54;;;;;;;1.73;1.20;;;17.30;81.20;18.00;97036.00;;;;5072053;28;20190;-87
2022/05/26 05:38:21;;;;;;;1.37;1.27;;;17.40;81.00;18.00;97035.00;;;;5053452;28;20580;-87
2022/05/26 05:40:49;;;;;;;1.57;1.47;;;17.40;80.80;18.00;97033.00;;;;5057168;28;20215;-87
2022/05/26 05:43:17;;;;;;;2.37;1.20;;;17.50;80.60;18.00;97037.00;;;;5072501;28;20417;-87
2022/05/26 05:45:44;;;;;;;1.20;1.10;;;17.50;80.50;18.10;97037.00;;;;5070738;28;20212;-87
2022/05/26 05:48:12;;;;;;;1.37;1.30;;;17.60;80.30;18.10;97044.00;;;;5053279;28;20197;-87
2022/05/26 05:50:39;;;;;;;1.77;1.20;;;17.60;79.90;18.20;97039.00;;;;5053055;28;20653;-87
2022/05/26 05:53:06;;;;;;;1.10;1.10;;;17.60;79.90;18.30;97050.00;;;;5060270;28;20230;-86
2022/05/26 05:55:34;;;;;;;1.50;1.40;;;17.70;80.10;18.30;97043.00;;;;5068519;28;20661;-86
2022/05/26 05:58:00;;;;;;;2.90;1.20;;;17.70;80.20;18.40;97043.00;;;;5062323;28;20568;-87
2022/05/26 06:00:27;;;;;;;1.40;1.30;;;17.70;80.00;18.40;97048.00;;;;5060213;28;21916;-87
2022/05/26 06:02:54;;;;;;;1.30;1.20;;;17.80;79.60;18.50;97048.00;;;;5064749;28;20216;-87
2022/05/26 06:05:23;;;;;;;1.20;1.10;;;17.90;79.40;18.50;97044.00;;;;5049408;28;20203;-87
2022/05/26 06:07:50;;;;;;;2.27;1.53;;;17.90;79.30;18.50;97054.00;;;;5064323;28;20203;-87
2022/05/26 06:10:17;;;;;;;1.80;1.20;;;18.00;79.60;18.60;97058.00;;;;5053332;28;20205;-87
2022/05/26 06:12:45;;;;;;;1.10;1.10;;;18.10;79.70;18.60;97061.00;;;;5064129;28;20423;-87
2022/05/26 06:15:13;;;;;;;1.17;1.07;;;18.10;79.60;18.60;97069.00;;;;5063190;28;20201;-87
2022/05/26 06:17:40;;;;;;;1.33;1.30;;;18.10;79.50;18.70;97063.00;;;;5053227;28;20264;-87
2022/05/26 06:20:10;;;;;;;1.17;1.07;;;18.10;79.30;18.70;97071.00;;;;5058781;28;20208;-87
2022/05/26 06:22:42;;;;;;;4.03;1.30;;;18.20;79.40;18.80;97067.00;;;;5060671;28;20224;-87
2022/05/26 06:25:12;;;;;;;1.10;1.10;;;18.20;78.80;18.80;97071.00;;;;5058209;28;20214;-87
2022/05/26 06:30:26;;;;;;;1.17;1.07;;;18.30;79.30;18.90;97070.00;;;;5054110;28;20246;-87
2022/05/26 06:38:28;;;;;;;1.73;1.00;;;18.40;78.90;19.10;97081.00;;;;5046928;28;20253;-87
2022/05/26 06:40:55;;;;;;;1.17;1.13;;;18.50;79.00;19.10;97078.00;;;;5061354;28;20224;-87
2022/05/26 06:43:23;;;;;;;0.90;0.90;;;18.60;79.70;19.20;97081.00;;;;5052859;28;20224;-87
2022/05/26 06:45:50;;;;;;;1.30;0.90;;;18.60;79.00;19.40;97093.00;;;;5053599;28;20200;-88
2022/05/26 06:48:18;;;;;;;1.00;1.00;;;18.70;78.70;19.50;97094.00;;;;5055942;28;20246;-87
2022/05/26 06:50:45;;;;;;;1.93;1.00;;;18.80;78.80;19.60;97086.00;;;;5065568;28;20189;-87
2022/05/26 06:53:12;;;;;;;0.70;0.70;;;18.90;78.50;19.70;97094.00;;;;5054850;28;20708;-87
2022/05/26 06:55:40;;;;;;;1.07;0.90;;;19.00;78.30;19.80;97097.00;;;;5052886;28;20199;-88
2022/05/26 06:58:07;;;;;;;1.93;0.80;;;19.10;78.50;19.90;97101.00;;;;5053474;28;20223;-88
2022/05/26 07:00:34;;;;;;;0.80;0.80;;;19.20;78.00;20.00;97101.00;;;;5050826;28;20212;-88
2022/05/26 07:03:01;;;;;;;0.80;0.80;;;19.30;77.60;20.10;97100.00;;;;5059199;28;20218;-88
2022/05/26 07:05:28;;;;;;;1.43;0.60;;;19.40;76.70;20.20;97098.00;;;;5058689;28;20243;-88
2022/05/26 07:07:55;;;;;;;0.60;0.60;;;19.50;77.00;20.40;97099.00;;;;5053654;28;20203;-86
2022/05/26 07:10:23;;;;;;;0.93;0.50;;;19.60;77.40;20.60;97099.00;;;;5055992;28;20200;-86
2022/05/26 07:12:51;;;;;;;0.57;0.57;;;19.70;77.40;20.80;97113.00;;;;5063680;28;20222;-86
2022/05/26 07:15:18;;;;;;;0.70;0.70;;;19.90;77.60;21.00;97110.00;;;;5053632;28;20207;-86
2022/05/26 07:17:45;;;;;;;0.87;0.80;;;20.00;77.30;21.20;97111.00;;;;5055707;28;20202;-86
2022/05/26 07:20:13;;;;;;;1.30;0.60;;;20.20;77.30;21.40;97107.00;;;;5055261;28;20235;-85
2022/05/26 07:22:40;;;;;;;1.37;0.50;;;20.30;77.00;21.60;97109.00;;;;5059214;28;20238;-90
2022/05/26 07:25:10;;;;;;;0.50;0.40;;;20.60;75.50;21.80;97104.00;;;;5067316;28;20250;-85
2022/05/26 07:27:38;;;;;;;0.40;0.40;;;20.70;74.40;22.00;97112.00;;;;5061438;28;20204;-85
2022/05/26 07:30:10;;;;;;;0.47;0.40;;;20.90;73.40;22.20;97106.00;;;;5057628;28;20289;-86
2022/05/26 07:32:37;;;;;;;0.53;0.40;;;21.00;71.80;22.30;97114.00;;;;5066005;28;20220;-86
2022/05/26 07:35:05;;;;;;;0.30;0.30;;;21.20;71.70;22.50;97109.00;;;;5065196;28;20204;-85
2022/05/26 07:43:02;;;;;;;1.00;0.40;;;21.70;71.50;23.20;97119.00;;;;5061212;28;20681;-88
2022/05/26 07:45:30;;;;;;;0.73;0.60;;;21.90;71.00;23.40;97118.00;;;;5052989;28;20212;-88
2022/05/26 07:47:57;;;;;;;0.87;0.40;;;22.10;70.20;23.70;97121.00;;;;5053256;28;20197;-88
2022/05/26 07:50:26;;;;;;;0.50;0.30;;;22.30;70.20;23.90;97122.00;;;;5060774;28;20258;-88
2022/05/26 07:52:53;;;;;;;0.30;0.30;;;22.40;70.00;24.10;97126.00;;;;5065660;28;20710;-88
2022/05/26 07:55:21;;;;;;;1.27;0.30;;;22.60;69.50;24.30;97126.00;;;;5052518;28;20212;-88
2022/05/26 07:57:49;;;;;;;1.50;0.40;;;22.80;68.40;24.50;97114.00;;;;5052757;28;20198;-89
2022/05/26 08:00:17;;;;;;;1.40;0.40;;;22.90;68.50;24.80;97115.00;;;;5057360;28;20200;-89
2022/05/26 08:02:46;;;;;;;0.30;0.30;;;23.10;68.80;25.10;97118.00;;;;5047564;28;20219;-89
2022/05/26 08:05:14;;;;;;;0.57;0.30;;;23.30;68.00;25.30;97117.00;;;;5062183;28;20226;-89
2022/05/26 08:07:43;;;;;;;0.80;0.37;;;23.40;67.50;25.50;97122.00;;;;5059320;28;20203;-88
2022/05/26 08:10:11;;;;;;;0.23;0.23;;;23.60;67.00;25.80;97123.00;;;;5058604;28;20670;-88
2022/05/26 08:12:38;;;;;;;0.30;0.20;;;23.80;67.00;26.00;97130.00;;;;5049601;28;20220;-90
2022/05/26 08:15:07;;;;;;;1.27;0.30;;;23.90;65.30;26.20;97133.00;;;;5055434;28;20207;-90
2022/05/26 08:17:34;;;;;;;1.90;0.20;;;24.10;64.20;26.40;97125.00;;;;5056259;28;20718;-89
2022/05/26 08:20:04;;;;;;;0.30;0.30;;;24.30;65.20;26.70;97124.00;;;;5067143;28;20208;-90
2022/05/26 08:22:31;;;;;;;0.53;0.30;;;24.30;64.00;27.00;97129.00;;;;5070778;28;20247;-87
2022/05/26 08:25:00;;;;;;;1.30;0.40;;;24.80;64.90;27.30;97126.00;;;;5061377;28;20288;-88
2022/05/26 08:27:28;;;;;;;0.57;0.23;;;24.80;65.10;27.70;97134.00;;;;5064530;28;20725;-88
2022/05/26 08:29:56;;;;;;;0.60;0.40;;;24.90;64.70;28.00;97129.00;;;;5078363;28;20708;-88
2022/05/26 08:32:25;;;;;;;0.43;0.37;;;25.10;63.70;28.30;97137.00;;;;5093587;22;20234;-82
2022/05/26 08:34:58;;;;;;;0.30;0.27;;;25.40;62.90;28.70;97138.00;;;;5062921;28;20664;-81
2022/05/26 08:37:27;;;;;;;2.83;0.30;;;25.60;62.20;29.00;97146.00;;;;5062307;28;20220;-81
2022/05/26 08:39:54;;;;;;;0.47;0.40;;;25.80;63.40;29.40;97146.00;;;;5077959;28;20249;-83
2022/05/26 08:42:31;;;;;;;1.40;0.33;;;26.00;62.40;29.60;97135.00;;;;5077329;28;20283;-82
2022/05/26 08:45:05;;;;;;;0.93;0.40;;;26.30;59.60;29.80;97137.00;;;;5076868;28;20215;-82
2022/05/26 08:47:40;;;;;;;0.70;0.50;;;26.50;60.30;30.10;97136.00;;;;5084452;28;20302;-82
2022/05/26 08:50:13;;;;;;;1.85;0.50;;;26.70;59.80;30.40;97149.00;;;;5084793;28;20521;-82
2022/05/26 08:52:49;;;;;;;0.68;0.25;;;26.90;59.80;30.70;97156.00;;;;5077796;28;20259;-82
2022/05/26 08:55:23;;;;;;;0.95;0.30;;;27.20;59.30;31.00;97151.00;;;;5075246;28;20712;-81
2022/05/26 08:57:58;;;;;;;0.40;0.30;;;27.50;59.80;31.20;97164.00;;;;5093658;28;20207;-81
2022/05/26 09:00:27;;;;;;;0.43;0.30;;;27.70;59.00;31.50;97164.00;;;;5079945;28;20977;-82
2022/05/26 09:02:58;;;;;;;0.30;0.30;;;28.00;59.10;31.70;97152.00;;;;5085904;28;20199;-82
2022/05/26 09:05:31;;;;;;;0.30;0.30;;;28.20;59.50;32.00;97170.00;;;;5099506;28;20207;-81
2022/05/26 09:13:41;;;;;;;1.75;0.55;;;28.90;56.00;31.70;97155.00;;;;5084398;28;20647;-81
2022/05/26 09:16:09;;;;;;;0.28;0.28;;;29.00;55.30;31.70;97167.00;;;;5099362;28;20655;-81
2022/05/26 09:18:37;;;;;;;0.25;0.20;;;29.10;55.90;31.90;97164.00;;;;5100193;28;20249;-82
2022/05/26 09:21:23;;;;;;;0.20;0.20;;;29.30;55.60;32.10;97159.00;;;;5090444;22;20708;-82
2022/05/26 09:23:54;;;;;;;0.63;0.40;;;29.50;52.80;32.30;97157.00;;;;5046423;28;20227;-82
2022/05/26 09:26:25;;;;;;;0.38;0.20;;;29.70;54.50;32.40;97160.00;;;;5052098;28;20201;-82
2022/05/26 09:28:56;;;;;;;0.30;0.20;;;30.00;53.30;32.50;97172.00;;;;5033473;28;20217;-82
2022/05/26 09:31:32;;;;;;;0.68;0.20;;;30.20;53.10;32.40;97166.00;;;;5031024;28;20653;-81
2022/05/26 09:34:17;;;;;;;1.38;0.40;;;30.40;51.10;32.30;97169.00;;;;5029380;28;20189;-82
2022/05/26 09:36:48;;;;;;;0.38;0.30;;;30.50;51.90;32.30;97168.00;;;;5035713;28;20714;-82
2022/05/26 09:39:22;;;;;;;0.30;0.20;;;30.60;52.90;32.40;97171.00;;;;5034641;28;20201;-82
2022/05/26 09:41:53;;;;;;;0.60;0.30;;;30.80;51.60;32.50;97174.00;;;;5028192;28;20197;-82
2022/05/26 09:44:35;;;;;;;0.30;0.25;;;31.10;52.50;32.70;97173.00;;;;5028731;28;20257;-82
2022/05/26 09:47:20;;;;;;;0.55;0.30;;;31.40;50.10;32.90;97171.00;;;;5031060;28;20665;-82
2022/05/26 09:49:52;;;;;;;0.30;0.15;;;31.70;51.00;33.00;97179.00;;;;5034497;28;20201;-82
2022/05/26 09:52:38;;;;;;;2.15;0.20;;;32.00;50.00;33.00;97172.00;;;;5035601;28;20217;-82
2022/05/26 09:55:17;;;;;;;0.90;0.40;;;32.20;48.90;32.70;97179.00;;;;5039422;28;20295;-83
2022/05/26 09:57:45;;;;;;;0.20;0.20;;;32.10;48.00;32.30;97184.00;;;;5034661;28;20503;-83
2022/05/26 10:00:35;;;;;;;0.55;0.20;;;32.00;48.70;32.10;97183.00;;;;5042718;28;20261;-83
2022/05/26 10:03:13;;;;;;;1.98;0.20;;;31.80;46.90;32.10;97186.00;;;;5026144;28;20205;-83
2022/05/26 10:05:54;;;;;;;0.57;0.40;;;31.80;48.20;32.00;97191.00;;;;5053557;28;20251;-84
2022/05/26 10:08:33;;;;;;;0.13;0.13;;;31.80;47.10;31.90;97176.00;;;;5035774;28;20228;-83
2022/05/26 10:11:10;;;;;;;0.13;0.13;;;31.70;48.50;31.80;97184.00;;;;5033744;28;20196;-83
2022/05/26 10:14:06;;;;;;;0.20;0.20;;;31.60;47.70;31.60;97187.00;;;;5040596;28;20674;-83
2022/05/26 10:16:44;;;;;;;0.30;0.30;;;31.50;47.80;31.40;97185.00;;;;5032496;28;20205;-83
2022/05/26 10:19:36;;;;;;;0.55;0.30;;;31.30;47.00;31.20;97179.00;;;;5039018;28;20192;-84
2022/05/26 10:22:37;;;;;;;1.35;0.50;;;31.20;46.00;31.10;97175.00;;;;5021786;28;20638;-82
2022/05/26 10:25:22;;;;;;;0.35;0.35;;;31.10;47.40;31.10;97179.00;;;;5032687;28;20225;-83
2022/05/26 10:28:24;;;;;;;1.17;1.08;;;31.20;48.30;31.10;97179.00;;;;5033743;28;20217;-83
2022/05/26 10:31:04;;;;;;;2.20;2.00;;;31.30;47.70;31.20;97188.00;;;;5027298;28;20197;-83
2022/05/26 10:33:59;;;;;;;0.60;0.60;;;31.40;47.30;31.20;97177.00;;;;5028902;28;20201;-81
2022/05/26 10:36:50;;;;;;;1.27;0.82;;;31.40;45.30;31.30;97170.00;;;;5023468;28;20220;-84
2022/05/26 10:39:34;;;;;;;2.03;1.33;;;31.50;48.80;31.40;97184.00;;;;5019203;28;20288;-84
2022/05/26 10:42:09;;;;;;;0.60;0.60;;;31.60;47.40;31.50;97178.00;;;;5023779;28;20272;-84
2022/05/26 10:44:47;;;;;;;0.68;0.52;;;31.70;47.80;31.50;97174.00;;;;5030683;28;20221;-85
2022/05/26 10:47:28;;;;;;;1.08;0.50;;;31.70;47.30;31.40;97190.00;;;;5028489;28;20221;-85
2022/05/26 10:50:07;;;;;;;1.63;1.30;;;31.50;45.50;31.20;97182.00;;;;5026912;28;20320;-84
2022/05/26 10:52:43;;;;;;;0.40;0.40;;;31.30;45.20;30.90;97178.00;;;;5032467;28;20296;-85
2022/05/26 10:55:17;;;;;;;2.85;0.40;;;31.10;45.10;30.70;97176.00;;;;5039951;28;20204;-84
2022/05/26 10:57:55;;;;;;;0.70;0.40;;;30.80;45.80;30.50;97185.00;;;;5031932;28;20213;-83
2022/05/26 11:00:30;;;;;;;0.82;0.70;;;30.50;46.00;30.30;97164.00;;;;5032136;28;20693;-84
2022/05/26 11:03:11;;;;;;;0.68;0.43;;;30.20;46.00;30.00;97162.00;;;;5030371;28;20193;-86
2022/05/26 11:05:46;;;;;;;1.35;1.00;;;29.90;45.70;29.80;97162.00;;;;5030673;28;20693;-85
2022/05/26 11:08:35;;;;;;;0.40;0.40;;;29.60;46.40;29.60;97167.00;;;;5031558;28;20229;-86
2022/05/26 11:11:09;;;;;;;0.28;0.28;;;29.40;45.60;29.50;97164.00;;;;5029381;28;20189;-84
2022/05/26 11:13:51;;;;;;;0.60;0.30;;;29.10;46.20;29.30;97161.00;;;;5036015;28;20227;-84
2022/05/26 11:19:32;;;;;;;1.48;1.38;;;28.70;46.30;28.90;97168.00;;;;5028058;28;20205;-84
2022/05/26 11:22:01;;;;;;;1.63;0.60;;;28.40;46.60;28.70;97153.00;;;;5021223;28;20241;-84
2022/05/26 11:24:29;;;;;;;0.40;0.35;;;28.20;47.70;28.60;97160.00;;;;5023283;28;20197;-84
2022/05/26 11:27:05;;;;;;;0.28;0.25;;;28.00;47.50;28.50;97164.00;;;;5020105;28;20300;-84
2022/05/26 11:29:38;;;;;;;1.20;0.77;;;27.90;47.70;28.30;97162.00;;;;5027158;28;20193;-83
2022/05/26 11:38:08;;;;;;;0.83;0.27;;;27.40;48.90;27.90;97154.00;;;;5024136;28;20297;-83
2022/05/26 11:40:48;;;;;;;0.80;0.77;;;27.20;48.90;27.80;97158.00;;;;5031270;28;20204;-83
2022/05/26 11:43:26;;;;;;;0.37;0.30;;;27.10;49.20;27.70;97154.00;;;;5029176;28;20466;-83
2022/05/26 11:45:55;;;;;;;0.83;0.30;;;27.00;48.70;27.70;97154.00;;;;5011277;28;20219;-83
2022/05/26 11:48:46;;;;;;;0.73;0.23;;;26.90;49.90;27.60;97148.00;;;;5021235;28;20227;-84
2022/05/26 11:51:35;;;;;;;0.23;0.20;;;26.80;48.50;27.50;97150.00;;;;5028246;28;20198;-83
2022/05/26 11:54:03;;;;;;;0.40;0.30;;;26.70;48.80;27.50;97144.00;;;;5040092;28;20201;-84
2022/05/26 11:56:51;;;;;;;0.20;0.20;;;26.70;50.50;27.50;97147.00;;;;5032183;28;20204;-84